sensor_id;sensor_type;location;lat;lon;timestamp;P1;durP1;ratioP1;P2;durP2;ratioP2
46308;SDS011;32037;50.820;6.494;2023-02-21T00:01:42;7.87;;;6.17;;
46308;SDS011;32037;50.820;6.494;2023-02-21T00:04:28;9.37;;;7.83;;
46308;SDS011;32037;50.820;6.494;2023-02-21T00:07:14;14.43;;;9.60;;
46308;SDS011;32037;50.820;6.494;2023-02-21T00:10:00;6.77;;;5.60;;
46308;SDS011;32037;50.820;6.494;2023-02-21T00:12:47;8.10;;;5.80;;
46308;SDS011;32037;50.820;6.494;2023-02-21T00:15:34;6.07;;;5.33;;
46308;SDS011;32037;50.820;6.494;2023-02-21T00:18:20;5.50;;;4.80;;
46308;SDS011;32037;50.820;6.494;2023-02-21T00:21:06;5.30;;;4.60;;
46308;SDS011;32037;50.820;6.494;2023-02-21T00:23:52;6.97;;;5.17;;
46308;SDS011;32037;50.820;6.494;2023-02-21T00:26:38;6.10;;;4.97;;
46308;SDS011;32037;50.820;6.494;2023-02-21T00:29:23;4.80;;;4.30;;
46308;SDS011;32037;50.820;6.494;2023-02-21T00:32:12;6.37;;;5.77;;
46308;SDS011;32037;50.820;6.494;2023-02-21T00:34:57;5.13;;;4.60;;
46308;SDS011;32037;50.820;6.494;2023-02-21T00:37:43;6.47;;;4.87;;
46308;SDS011;32037;50.820;6.494;2023-02-21T00:40:29;5.37;;;4.87;;
46308;SDS011;32037;50.820;6.494;2023-02-21T00:43:15;5.07;;;4.57;;
46308;SDS011;32037;50.820;6.494;2023-02-21T00:46:02;6.40;;;5.57;;
46308;SDS011;32037;50.820;6.494;2023-02-21T00:48:50;5.63;;;5.10;;
46308;SDS011;32037;50.820;6.494;2023-02-21T00:51:36;7.33;;;5.00;;
46308;SDS011;32037;50.820;6.494;2023-02-21T00:54:22;7.37;;;5.77;;
46308;SDS011;32037;50.820;6.494;2023-02-21T00:57:07;7.37;;;5.77;;
46308;SDS011;32037;50.820;6.494;2023-02-21T00:59:53;5.97;;;4.97;;
46308;SDS011;32037;50.820;6.494;2023-02-21T01:02:38;5.40;;;4.80;;
46308;SDS011;32037;50.820;6.494;2023-02-21T01:05:26;7.63;;;5.37;;
46308;SDS011;32037;50.820;6.494;2023-02-21T01:08:12;5.63;;;4.97;;
46308;SDS011;32037;50.820;6.494;2023-02-21T01:10:58;6.87;;;4.93;;
46308;SDS011;32037;50.820;6.494;2023-02-21T01:13:44;6.13;;;5.33;;
46308;SDS011;32037;50.820;6.494;2023-02-21T01:16:31;6.80;;;5.77;;
46308;SDS011;32037;50.820;6.494;2023-02-21T01:19:18;5.87;;;4.60;;
46308;SDS011;32037;50.820;6.494;2023-02-21T01:22:05;7.57;;;4.20;;
46308;SDS011;32037;50.820;6.494;2023-02-21T01:24:53;6.00;;;5.40;;
46308;SDS011;32037;50.820;6.494;2023-02-21T01:27:39;6.47;;;4.80;;
46308;SDS011;32037;50.820;6.494;2023-02-21T01:30:24;6.73;;;5.50;;
46308;SDS011;32037;50.820;6.494;2023-02-21T01:33:11;8.93;;;4.97;;
46308;SDS011;32037;50.820;6.494;2023-02-21T01:35:56;9.47;;;5.50;;
46308;SDS011;32037;50.820;6.494;2023-02-21T01:38:45;6.47;;;5.73;;
46308;SDS011;32037;50.820;6.494;2023-02-21T01:41:30;5.73;;;4.27;;
46308;SDS011;32037;50.820;6.494;2023-02-21T01:44:27;6.57;;;5.70;;
46308;SDS011;32037;50.820;6.494;2023-02-21T01:47:16;7.10;;;5.53;;
46308;SDS011;32037;50.820;6.494;2023-02-21T01:50:05;5.90;;;5.30;;
46308;SDS011;32037;50.820;6.494;2023-02-21T01:53:07;6.97;;;5.53;;
46308;SDS011;32037;50.820;6.494;2023-02-21T01:55:57;7.10;;;5.70;;
46308;SDS011;32037;50.820;6.494;2023-02-21T01:58:46;6.73;;;5.40;;
46308;SDS011;32037;50.820;6.494;2023-02-21T02:01:38;6.13;;;5.37;;
46308;SDS011;32037;50.820;6.494;2023-02-21T02:04:30;6.10;;;5.13;;
46308;SDS011;32037;50.820;6.494;2023-02-21T02:07:20;8.83;;;5.50;;
46308;SDS011;32037;50.820;6.494;2023-02-21T02:10:09;6.63;;;4.87;;
46308;SDS011;32037;50.820;6.494;2023-02-21T02:13:18;8.40;;;5.67;;
46308;SDS011;32037;50.820;6.494;2023-02-21T02:16:01;8.93;;;5.90;;
46308;SDS011;32037;50.820;6.494;2023-02-21T02:24:40;6.23;;;5.60;;
46308;SDS011;32037;50.820;6.494;2023-02-21T02:27:24;8.97;;;5.67;;
46308;SDS011;32037;50.820;6.494;2023-02-21T02:30:31;7.43;;;6.70;;
46308;SDS011;32037;50.820;6.494;2023-02-21T02:36:31;7.80;;;5.47;;
46308;SDS011;32037;50.820;6.494;2023-02-21T02:39:08;7.07;;;5.80;;
46308;SDS011;32037;50.820;6.494;2023-02-21T02:41:45;5.97;;;5.17;;
46308;SDS011;32037;50.820;6.494;2023-02-21T02:44:20;6.90;;;5.40;;
46308;SDS011;32037;50.820;6.494;2023-02-21T02:46:57;6.60;;;5.50;;
46308;SDS011;32037;50.820;6.494;2023-02-21T02:49:28;7.27;;;5.27;;
46308;SDS011;32037;50.820;6.494;2023-02-21T02:52:03;6.27;;;5.13;;
46308;SDS011;32037;50.820;6.494;2023-02-21T02:54:33;7.60;;;5.50;;
46308;SDS011;32037;50.820;6.494;2023-02-21T02:57:02;5.60;;;4.80;;
46308;SDS011;32037;50.820;6.494;2023-02-21T02:59:36;6.97;;;5.50;;
46308;SDS011;32037;50.820;6.494;2023-02-21T03:02:13;7.10;;;4.53;;
46308;SDS011;32037;50.820;6.494;2023-02-21T03:04:58;6.00;;;5.17;;
46308;SDS011;32037;50.820;6.494;2023-02-21T03:07:49;7.63;;;5.53;;
46308;SDS011;32037;50.820;6.494;2023-02-21T03:10:27;6.70;;;5.40;;
46308;SDS011;32037;50.820;6.494;2023-02-21T03:13:07;5.83;;;5.23;;
46308;SDS011;32037;50.820;6.494;2023-02-21T03:15:43;8.40;;;6.50;;
46308;SDS011;32037;50.820;6.494;2023-02-21T03:18:17;5.40;;;4.73;;
46308;SDS011;32037;50.820;6.494;2023-02-21T03:20:52;5.20;;;4.70;;
46308;SDS011;32037;50.820;6.494;2023-02-21T03:23:25;6.77;;;5.10;;
46308;SDS011;32037;50.820;6.494;2023-02-21T03:25:56;6.47;;;4.60;;
46308;SDS011;32037;50.820;6.494;2023-02-21T03:28:29;6.83;;;4.83;;
46308;SDS011;32037;50.820;6.494;2023-02-21T03:30:59;6.00;;;5.07;;
46308;SDS011;32037;50.820;6.494;2023-02-21T03:33:30;6.60;;;5.33;;
46308;SDS011;32037;50.820;6.494;2023-02-21T03:35:59;6.53;;;5.27;;
46308;SDS011;32037;50.820;6.494;2023-02-21T03:38:33;7.47;;;5.47;;
46308;SDS011;32037;50.820;6.494;2023-02-21T03:41:01;6.10;;;4.17;;
46308;SDS011;32037;50.820;6.494;2023-02-21T03:43:32;6.07;;;4.37;;
46308;SDS011;32037;50.820;6.494;2023-02-21T03:46:02;7.70;;;5.10;;
46308;SDS011;32037;50.820;6.494;2023-02-21T03:48:31;5.60;;;4.60;;
46308;SDS011;32037;50.820;6.494;2023-02-21T03:51:09;6.93;;;4.70;;
46308;SDS011;32037;50.820;6.494;2023-02-21T03:53:40;5.23;;;4.70;;
46308;SDS011;32037;50.820;6.494;2023-02-21T03:56:10;7.67;;;6.07;;
46308;SDS011;32037;50.820;6.494;2023-02-21T03:59:07;5.67;;;4.97;;
46308;SDS011;32037;50.820;6.494;2023-02-21T04:01:36;9.77;;;6.57;;
46308;SDS011;32037;50.820;6.494;2023-02-21T04:04:04;6.60;;;5.20;;
46308;SDS011;32037;50.820;6.494;2023-02-21T04:06:34;6.47;;;4.30;;
46308;SDS011;32037;50.820;6.494;2023-02-21T04:09:04;8.13;;;6.20;;
46308;SDS011;32037;50.820;6.494;2023-02-21T04:11:32;6.10;;;5.20;;
46308;SDS011;32037;50.820;6.494;2023-02-21T04:14:00;7.23;;;5.13;;
46308;SDS011;32037;50.820;6.494;2023-02-21T04:16:30;5.77;;;4.93;;
46308;SDS011;32037;50.820;6.494;2023-02-21T04:18:59;5.33;;;4.20;;
46308;SDS011;32037;50.820;6.494;2023-02-21T04:21:27;6.53;;;5.50;;
46308;SDS011;32037;50.820;6.494;2023-02-21T04:23:58;7.37;;;5.77;;
46308;SDS011;32037;50.820;6.494;2023-02-21T04:26:30;8.70;;;6.33;;
46308;SDS011;32037;50.820;6.494;2023-02-21T04:29:00;7.63;;;5.80;;
46308;SDS011;32037;50.820;6.494;2023-02-21T04:31:29;8.20;;;5.73;;
46308;SDS011;32037;50.820;6.494;2023-02-21T04:34:03;7.07;;;6.10;;
46308;SDS011;32037;50.820;6.494;2023-02-21T04:36:40;6.43;;;4.50;;
46308;SDS011;32037;50.820;6.494;2023-02-21T04:39:09;6.07;;;5.27;;
46308;SDS011;32037;50.820;6.494;2023-02-21T04:41:39;5.93;;;4.67;;
46308;SDS011;32037;50.820;6.494;2023-02-21T04:44:08;4.77;;;4.27;;
46308;SDS011;32037;50.820;6.494;2023-02-21T04:46:36;6.43;;;4.90;;
46308;SDS011;32037;50.820;6.494;2023-02-21T04:49:05;5.67;;;4.70;;
46308;SDS011;32037;50.820;6.494;2023-02-21T04:51:34;5.50;;;4.27;;
46308;SDS011;32037;50.820;6.494;2023-02-21T04:54:03;6.00;;;4.47;;
46308;SDS011;32037;50.820;6.494;2023-02-21T04:56:33;5.07;;;4.53;;
46308;SDS011;32037;50.820;6.494;2023-02-21T04:59:04;5.77;;;4.97;;
46308;SDS011;32037;50.820;6.494;2023-02-21T05:01:32;4.90;;;3.70;;
46308;SDS011;32037;50.820;6.494;2023-02-21T05:04:01;5.50;;;4.20;;
46308;SDS011;32037;50.820;6.494;2023-02-21T05:06:30;5.40;;;4.20;;
46308;SDS011;32037;50.820;6.494;2023-02-21T05:08:59;5.93;;;4.27;;
46308;SDS011;32037;50.820;6.494;2023-02-21T05:11:27;4.77;;;4.03;;
46308;SDS011;32037;50.820;6.494;2023-02-21T05:14:00;6.60;;;4.83;;
46308;SDS011;32037;50.820;6.494;2023-02-21T05:16:30;5.27;;;4.73;;
46308;SDS011;32037;50.820;6.494;2023-02-21T05:18:58;4.40;;;4.00;;
46308;SDS011;32037;50.820;6.494;2023-02-21T05:21:28;4.30;;;3.57;;
46308;SDS011;32037;50.820;6.494;2023-02-21T05:24:00;4.93;;;4.00;;
46308;SDS011;32037;50.820;6.494;2023-02-21T05:26:32;5.27;;;4.40;;
46308;SDS011;32037;50.820;6.494;2023-02-21T05:29:02;5.60;;;4.10;;
46308;SDS011;32037;50.820;6.494;2023-02-21T05:31:32;5.10;;;3.87;;
46308;SDS011;32037;50.820;6.494;2023-02-21T05:34:00;4.70;;;3.87;;
46308;SDS011;32037;50.820;6.494;2023-02-21T05:36:29;4.10;;;3.63;;
46308;SDS011;32037;50.820;6.494;2023-02-21T05:38:57;5.40;;;4.60;;
46308;SDS011;32037;50.820;6.494;2023-02-21T05:41:25;5.50;;;4.07;;
46308;SDS011;32037;50.820;6.494;2023-02-21T05:43:54;5.33;;;4.30;;
46308;SDS011;32037;50.820;6.494;2023-02-21T05:46:23;6.13;;;4.43;;
46308;SDS011;32037;50.820;6.494;2023-02-21T05:48:54;6.43;;;5.23;;
46308;SDS011;32037;50.820;6.494;2023-02-21T05:51:23;4.47;;;3.97;;
46308;SDS011;32037;50.820;6.494;2023-02-21T05:53:52;3.90;;;3.20;;
46308;SDS011;32037;50.820;6.494;2023-02-21T05:56:21;6.17;;;4.73;;
46308;SDS011;32037;50.820;6.494;2023-02-21T05:58:49;4.20;;;3.80;;
46308;SDS011;32037;50.820;6.494;2023-02-21T06:01:18;7.30;;;5.30;;
46308;SDS011;32037;50.820;6.494;2023-02-21T06:03:47;5.50;;;4.40;;
46308;SDS011;32037;50.820;6.494;2023-02-21T06:06:16;5.07;;;4.27;;
46308;SDS011;32037;50.820;6.494;2023-02-21T06:08:45;5.23;;;4.73;;
46308;SDS011;32037;50.820;6.494;2023-02-21T06:11:20;4.80;;;3.90;;
46308;SDS011;32037;50.820;6.494;2023-02-21T06:13:50;5.83;;;5.23;;
46308;SDS011;32037;50.820;6.494;2023-02-21T06:16:19;4.80;;;4.30;;
46308;SDS011;32037;50.820;6.494;2023-02-21T06:18:48;5.57;;;4.00;;
46308;SDS011;32037;50.820;6.494;2023-02-21T06:21:18;6.50;;;4.60;;
46308;SDS011;32037;50.820;6.494;2023-02-21T06:23:47;7.83;;;5.50;;
46308;SDS011;32037;50.820;6.494;2023-02-21T06:26:16;6.97;;;5.30;;
46308;SDS011;32037;50.820;6.494;2023-02-21T06:28:45;7.93;;;4.90;;
46308;SDS011;32037;50.820;6.494;2023-02-21T06:31:14;8.40;;;5.20;;
46308;SDS011;32037;50.820;6.494;2023-02-21T06:33:43;7.57;;;5.73;;
46308;SDS011;32037;50.820;6.494;2023-02-21T06:36:13;6.27;;;5.30;;
46308;SDS011;32037;50.820;6.494;2023-02-21T06:38:44;6.83;;;4.20;;
46308;SDS011;32037;50.820;6.494;2023-02-21T06:41:13;5.10;;;4.60;;
46308;SDS011;32037;50.820;6.494;2023-02-21T06:43:42;6.93;;;4.87;;
46308;SDS011;32037;50.820;6.494;2023-02-21T06:46:14;8.97;;;5.80;;
46308;SDS011;32037;50.820;6.494;2023-02-21T06:48:43;6.10;;;4.90;;
46308;SDS011;32037;50.820;6.494;2023-02-21T06:51:11;7.83;;;5.93;;
46308;SDS011;32037;50.820;6.494;2023-02-21T06:53:40;5.80;;;5.20;;
46308;SDS011;32037;50.820;6.494;2023-02-21T06:56:11;5.90;;;4.67;;
46308;SDS011;32037;50.820;6.494;2023-02-21T06:58:39;5.47;;;4.70;;
46308;SDS011;32037;50.820;6.494;2023-02-21T07:01:07;7.30;;;4.80;;
46308;SDS011;32037;50.820;6.494;2023-02-21T07:03:37;7.93;;;5.50;;
46308;SDS011;32037;50.820;6.494;2023-02-21T07:06:08;8.53;;;5.80;;
46308;SDS011;32037;50.820;6.494;2023-02-21T07:08:36;6.53;;;4.70;;
46308;SDS011;32037;50.820;6.494;2023-02-21T07:11:05;6.20;;;4.90;;
46308;SDS011;32037;50.820;6.494;2023-02-21T07:13:35;5.87;;;4.97;;
46308;SDS011;32037;50.820;6.494;2023-02-21T07:16:04;7.27;;;5.40;;
46308;SDS011;32037;50.820;6.494;2023-02-21T07:18:32;6.50;;;5.20;;
46308;SDS011;32037;50.820;6.494;2023-02-21T07:21:01;6.73;;;5.77;;
46308;SDS011;32037;50.820;6.494;2023-02-21T07:23:29;5.97;;;5.30;;
46308;SDS011;32037;50.820;6.494;2023-02-21T07:25:58;5.20;;;4.40;;
46308;SDS011;32037;50.820;6.494;2023-02-21T07:28:26;5.83;;;4.60;;
46308;SDS011;32037;50.820;6.494;2023-02-21T07:30:56;6.70;;;5.37;;
46308;SDS011;32037;50.820;6.494;2023-02-21T07:33:24;10.60;;;5.87;;
46308;SDS011;32037;50.820;6.494;2023-02-21T07:35:53;7.23;;;5.10;;
46308;SDS011;32037;50.820;6.494;2023-02-21T07:38:22;6.03;;;4.00;;
46308;SDS011;32037;50.820;6.494;2023-02-21T07:40:53;4.77;;;4.30;;
46308;SDS011;32037;50.820;6.494;2023-02-21T07:43:22;9.57;;;6.07;;
46308;SDS011;32037;50.820;6.494;2023-02-21T07:45:51;7.33;;;5.30;;
46308;SDS011;32037;50.820;6.494;2023-02-21T07:48:21;5.93;;;4.77;;
46308;SDS011;32037;50.820;6.494;2023-02-21T07:50:50;7.37;;;4.97;;
46308;SDS011;32037;50.820;6.494;2023-02-21T07:53:18;6.47;;;5.40;;
46308;SDS011;32037;50.820;6.494;2023-02-21T07:55:46;8.27;;;5.43;;
46308;SDS011;32037;50.820;6.494;2023-02-21T07:58:14;5.70;;;4.43;;
46308;SDS011;32037;50.820;6.494;2023-02-21T08:00:46;8.77;;;5.80;;
46308;SDS011;32037;50.820;6.494;2023-02-21T08:03:14;7.83;;;5.17;;
46308;SDS011;32037;50.820;6.494;2023-02-21T08:05:44;8.07;;;5.47;;
46308;SDS011;32037;50.820;6.494;2023-02-21T08:08:13;5.87;;;4.70;;
46308;SDS011;32037;50.820;6.494;2023-02-21T08:10:42;7.00;;;4.97;;
46308;SDS011;32037;50.820;6.494;2023-02-21T08:13:10;7.90;;;5.23;;
46308;SDS011;32037;50.820;6.494;2023-02-21T08:15:38;8.20;;;5.67;;
46308;SDS011;32037;50.820;6.494;2023-02-21T08:18:10;7.60;;;4.47;;
46308;SDS011;32037;50.820;6.494;2023-02-21T08:20:46;10.20;;;5.20;;
46308;SDS011;32037;50.820;6.494;2023-02-21T08:23:15;14.50;;;9.20;;
46308;SDS011;32037;50.820;6.494;2023-02-21T08:25:44;15.73;;;11.23;;
46308;SDS011;32037;50.820;6.494;2023-02-21T08:28:13;14.30;;;11.27;;
46308;SDS011;32037;50.820;6.494;2023-02-21T08:30:42;20.50;;;10.17;;
46308;SDS011;32037;50.820;6.494;2023-02-21T08:33:10;15.07;;;9.60;;
46308;SDS011;32037;50.820;6.494;2023-02-21T08:35:39;17.13;;;9.80;;
46308;SDS011;32037;50.820;6.494;2023-02-21T08:38:08;17.63;;;9.17;;
46308;SDS011;32037;50.820;6.494;2023-02-21T08:40:38;14.50;;;9.70;;
46308;SDS011;32037;50.820;6.494;2023-02-21T08:43:06;11.00;;;7.53;;
46308;SDS011;32037;50.820;6.494;2023-02-21T08:45:34;11.37;;;8.53;;
46308;SDS011;32037;50.820;6.494;2023-02-21T08:48:03;13.10;;;8.70;;
46308;SDS011;32037;50.820;6.494;2023-02-21T08:50:31;10.80;;;8.10;;
46308;SDS011;32037;50.820;6.494;2023-02-21T08:53:00;10.20;;;7.73;;
46308;SDS011;32037;50.820;6.494;2023-02-21T08:55:29;11.23;;;7.60;;
46308;SDS011;32037;50.820;6.494;2023-02-21T08:57:57;10.90;;;7.30;;
46308;SDS011;32037;50.820;6.494;2023-02-21T09:00:26;12.07;;;8.10;;
46308;SDS011;32037;50.820;6.494;2023-02-21T09:02:55;12.90;;;8.00;;
46308;SDS011;32037;50.820;6.494;2023-02-21T09:05:25;14.23;;;8.93;;
46308;SDS011;32037;50.820;6.494;2023-02-21T09:07:56;13.77;;;8.43;;
46308;SDS011;32037;50.820;6.494;2023-02-21T09:10:27;12.80;;;8.20;;
46308;SDS011;32037;50.820;6.494;2023-02-21T09:12:59;12.60;;;7.83;;
46308;SDS011;32037;50.820;6.494;2023-02-21T09:15:27;10.90;;;7.40;;
46308;SDS011;32037;50.820;6.494;2023-02-21T09:17:57;13.00;;;8.43;;
46308;SDS011;32037;50.820;6.494;2023-02-21T09:20:26;10.53;;;6.43;;
46308;SDS011;32037;50.820;6.494;2023-02-21T09:22:54;9.57;;;6.63;;
46308;SDS011;32037;50.820;6.494;2023-02-21T09:25:23;11.40;;;8.93;;
46308;SDS011;32037;50.820;6.494;2023-02-21T09:27:53;10.33;;;6.93;;
46308;SDS011;32037;50.820;6.494;2023-02-21T09:30:22;9.93;;;7.20;;
46308;SDS011;32037;50.820;6.494;2023-02-21T09:32:52;9.23;;;6.10;;
46308;SDS011;32037;50.820;6.494;2023-02-21T09:35:21;8.40;;;5.63;;
46308;SDS011;32037;50.820;6.494;2023-02-21T09:37:49;11.53;;;7.43;;
46308;SDS011;32037;50.820;6.494;2023-02-21T09:40:23;9.50;;;6.93;;
46308;SDS011;32037;50.820;6.494;2023-02-21T09:43:01;11.00;;;7.13;;
46308;SDS011;32037;50.820;6.494;2023-02-21T09:45:35;9.30;;;6.53;;
46308;SDS011;32037;50.820;6.494;2023-02-21T09:48:05;9.73;;;6.90;;
46308;SDS011;32037;50.820;6.494;2023-02-21T09:50:39;7.63;;;5.53;;
46308;SDS011;32037;50.820;6.494;2023-02-21T09:53:11;8.30;;;6.03;;
46308;SDS011;32037;50.820;6.494;2023-02-21T09:55:43;9.70;;;6.33;;
46308;SDS011;32037;50.820;6.494;2023-02-21T09:58:14;8.90;;;6.87;;
46308;SDS011;32037;50.820;6.494;2023-02-21T10:00:45;9.83;;;6.80;;
46308;SDS011;32037;50.820;6.494;2023-02-21T10:03:21;7.70;;;5.87;;
46308;SDS011;32037;50.820;6.494;2023-02-21T10:06:09;9.00;;;6.20;;
46308;SDS011;32037;50.820;6.494;2023-02-21T10:08:46;10.47;;;6.70;;
46308;SDS011;32037;50.820;6.494;2023-02-21T10:11:24;11.57;;;6.93;;
46308;SDS011;32037;50.820;6.494;2023-02-21T10:14:04;10.90;;;7.30;;
46308;SDS011;32037;50.820;6.494;2023-02-21T10:16:42;8.50;;;6.60;;
46308;SDS011;32037;50.820;6.494;2023-02-21T10:19:15;9.87;;;6.93;;
46308;SDS011;32037;50.820;6.494;2023-02-21T10:21:51;9.83;;;6.50;;
46308;SDS011;32037;50.820;6.494;2023-02-21T10:24:24;8.73;;;6.50;;
46308;SDS011;32037;50.820;6.494;2023-02-21T10:26:56;9.90;;;7.17;;
46308;SDS011;32037;50.820;6.494;2023-02-21T10:29:32;8.23;;;6.53;;
46308;SDS011;32037;50.820;6.494;2023-02-21T10:32:06;11.20;;;7.17;;
46308;SDS011;32037;50.820;6.494;2023-02-21T10:34:35;7.93;;;5.97;;
46308;SDS011;32037;50.820;6.494;2023-02-21T10:37:05;8.57;;;6.70;;
46308;SDS011;32037;50.820;6.494;2023-02-21T10:39:49;8.87;;;6.47;;
46308;SDS011;32037;50.820;6.494;2023-02-21T10:42:24;10.03;;;6.57;;
46308;SDS011;32037;50.820;6.494;2023-02-21T10:44:58;8.93;;;6.20;;
46308;SDS011;32037;50.820;6.494;2023-02-21T10:47:28;8.43;;;6.40;;
46308;SDS011;32037;50.820;6.494;2023-02-21T10:50:04;8.67;;;6.17;;
46308;SDS011;32037;50.820;6.494;2023-02-21T10:52:35;9.03;;;6.50;;
46308;SDS011;32037;50.820;6.494;2023-02-21T10:55:05;7.43;;;5.80;;
46308;SDS011;32037;50.820;6.494;2023-02-21T10:57:57;8.40;;;6.03;;
46308;SDS011;32037;50.820;6.494;2023-02-21T11:00:34;9.10;;;6.77;;
46308;SDS011;32037;50.820;6.494;2023-02-21T11:03:05;9.13;;;5.90;;
46308;SDS011;32037;50.820;6.494;2023-02-21T11:05:48;9.17;;;6.90;;
46308;SDS011;32037;50.820;6.494;2023-02-21T11:08:31;9.00;;;5.80;;
46308;SDS011;32037;50.820;6.494;2023-02-21T11:11:02;8.27;;;6.33;;
46308;SDS011;32037;50.820;6.494;2023-02-21T11:13:31;8.83;;;6.23;;
46308;SDS011;32037;50.820;6.494;2023-02-21T11:16:10;7.37;;;5.63;;
46308;SDS011;32037;50.820;6.494;2023-02-21T11:18:43;9.10;;;6.50;;
46308;SDS011;32037;50.820;6.494;2023-02-21T11:21:12;6.80;;;5.30;;
46308;SDS011;32037;50.820;6.494;2023-02-21T11:23:46;8.63;;;6.20;;
46308;SDS011;32037;50.820;6.494;2023-02-21T11:26:24;9.40;;;6.17;;
46308;SDS011;32037;50.820;6.494;2023-02-21T11:28:55;7.27;;;6.37;;
46308;SDS011;32037;50.820;6.494;2023-02-21T11:31:36;8.10;;;6.00;;
46308;SDS011;32037;50.820;6.494;2023-02-21T11:34:06;6.93;;;5.80;;
46308;SDS011;32037;50.820;6.494;2023-02-21T11:36:38;9.87;;;7.33;;
46308;SDS011;32037;50.820;6.494;2023-02-21T11:39:14;7.43;;;5.73;;
46308;SDS011;32037;50.820;6.494;2023-02-21T11:41:45;7.13;;;5.87;;
46308;SDS011;32037;50.820;6.494;2023-02-21T11:44:22;6.97;;;5.77;;
46308;SDS011;32037;50.820;6.494;2023-02-21T11:46:56;7.43;;;5.10;;
46308;SDS011;32037;50.820;6.494;2023-02-21T11:49:35;8.13;;;6.27;;
46308;SDS011;32037;50.820;6.494;2023-02-21T11:52:09;9.13;;;6.30;;
46308;SDS011;32037;50.820;6.494;2023-02-21T11:54:40;8.20;;;5.07;;
46308;SDS011;32037;50.820;6.494;2023-02-21T11:57:12;7.27;;;5.60;;
46308;SDS011;32037;50.820;6.494;2023-02-21T11:59:49;8.47;;;6.60;;
46308;SDS011;32037;50.820;6.494;2023-02-21T12:02:43;7.37;;;4.80;;
46308;SDS011;32037;50.820;6.494;2023-02-21T12:05:30;7.83;;;5.80;;
46308;SDS011;32037;50.820;6.494;2023-02-21T12:08:16;8.83;;;6.00;;
46308;SDS011;32037;50.820;6.494;2023-02-21T12:10:58;7.80;;;5.97;;
46308;SDS011;32037;50.820;6.494;2023-02-21T12:13:39;7.13;;;5.23;;
46308;SDS011;32037;50.820;6.494;2023-02-21T12:16:17;7.60;;;6.03;;
46308;SDS011;32037;50.820;6.494;2023-02-21T12:18:58;7.70;;;5.73;;
46308;SDS011;32037;50.820;6.494;2023-02-21T12:21:52;6.67;;;5.63;;
46308;SDS011;32037;50.820;6.494;2023-02-21T12:24:35;6.33;;;5.27;;
46308;SDS011;32037;50.820;6.494;2023-02-21T12:27:18;6.27;;;5.10;;
46308;SDS011;32037;50.820;6.494;2023-02-21T12:30:13;7.17;;;6.27;;
46308;SDS011;32037;50.820;6.494;2023-02-21T12:32:55;6.57;;;4.83;;
46308;SDS011;32037;50.820;6.494;2023-02-21T12:35:45;9.40;;;6.93;;
46308;SDS011;32037;50.820;6.494;2023-02-21T12:38:44;8.30;;;5.97;;
46308;SDS011;32037;50.820;6.494;2023-02-21T12:41:41;10.33;;;6.17;;
46308;SDS011;32037;50.820;6.494;2023-02-21T12:44:18;8.43;;;5.90;;
46308;SDS011;32037;50.820;6.494;2023-02-21T12:46:51;8.20;;;6.37;;
46308;SDS011;32037;50.820;6.494;2023-02-21T12:49:25;7.47;;;5.57;;
46308;SDS011;32037;50.820;6.494;2023-02-21T12:52:00;6.13;;;5.50;;
46308;SDS011;32037;50.820;6.494;2023-02-21T12:54:35;7.27;;;6.23;;
46308;SDS011;32037;50.820;6.494;2023-02-21T12:57:08;8.53;;;5.50;;
46308;SDS011;32037;50.820;6.494;2023-02-21T12:59:47;8.40;;;5.87;;
46308;SDS011;32037;50.820;6.494;2023-02-21T13:02:23;7.90;;;5.90;;
46308;SDS011;32037;50.820;6.494;2023-02-21T13:04:58;8.23;;;6.20;;
46308;SDS011;32037;50.820;6.494;2023-02-21T13:07:34;8.07;;;6.50;;
46308;SDS011;32037;50.820;6.494;2023-02-21T13:10:12;9.47;;;5.90;;
46308;SDS011;32037;50.820;6.494;2023-02-21T13:12:46;8.73;;;5.57;;
46308;SDS011;32037;50.820;6.494;2023-02-21T13:15:24;7.83;;;5.83;;
46308;SDS011;32037;50.820;6.494;2023-02-21T13:17:55;7.33;;;5.67;;
46308;SDS011;32037;50.820;6.494;2023-02-21T13:20:29;7.67;;;5.20;;
46308;SDS011;32037;50.820;6.494;2023-02-21T13:23:04;7.40;;;6.00;;
46308;SDS011;32037;50.820;6.494;2023-02-21T13:26:15;9.57;;;7.10;;
46308;SDS011;32037;50.820;6.494;2023-02-21T13:28:53;8.17;;;5.97;;
46308;SDS011;32037;50.820;6.494;2023-02-21T13:31:23;7.47;;;6.10;;
46308;SDS011;32037;50.820;6.494;2023-02-21T13:33:54;9.80;;;6.50;;
46308;SDS011;32037;50.820;6.494;2023-02-21T13:36:24;5.87;;;5.10;;
46308;SDS011;32037;50.820;6.494;2023-02-21T13:38:58;7.23;;;6.10;;
46308;SDS011;32037;50.820;6.494;2023-02-21T13:41:32;9.17;;;6.13;;
46308;SDS011;32037;50.820;6.494;2023-02-21T13:44:14;6.30;;;5.00;;
46308;SDS011;32037;50.820;6.494;2023-02-21T13:49:43;10.73;;;7.10;;
46308;SDS011;32037;50.820;6.494;2023-02-21T13:52:36;7.93;;;5.40;;
46308;SDS011;32037;50.820;6.494;2023-02-21T13:55:24;6.67;;;5.50;;
46308;SDS011;32037;50.820;6.494;2023-02-21T14:10:31;6.73;;;5.10;;
46308;SDS011;32037;50.820;6.494;2023-02-21T14:13:06;6.73;;;4.97;;
46308;SDS011;32037;50.820;6.494;2023-02-21T14:15:46;6.27;;;5.20;;
46308;SDS011;32037;50.820;6.494;2023-02-21T14:18:19;9.67;;;6.63;;
46308;SDS011;32037;50.820;6.494;2023-02-21T14:20:52;7.17;;;5.20;;
46308;SDS011;32037;50.820;6.494;2023-02-21T14:23:36;6.63;;;4.80;;
46308;SDS011;32037;50.820;6.494;2023-02-21T14:26:31;7.90;;;5.87;;
46308;SDS011;32037;50.820;6.494;2023-02-21T14:29:14;6.77;;;5.53;;
46308;SDS011;32037;50.820;6.494;2023-02-21T14:31:55;7.30;;;5.93;;
46308;SDS011;32037;50.820;6.494;2023-02-21T14:34:48;6.17;;;4.10;;
46308;SDS011;32037;50.820;6.494;2023-02-21T14:37:22;8.67;;;5.90;;
46308;SDS011;32037;50.820;6.494;2023-02-21T14:39:57;7.60;;;5.50;;
46308;SDS011;32037;50.820;6.494;2023-02-21T14:42:36;7.70;;;5.17;;
46308;SDS011;32037;50.820;6.494;2023-02-21T14:45:18;7.90;;;6.23;;
46308;SDS011;32037;50.820;6.494;2023-02-21T14:48:00;6.00;;;5.33;;
46308;SDS011;32037;50.820;6.494;2023-02-21T14:51:01;7.67;;;4.83;;
46308;SDS011;32037;50.820;6.494;2023-02-21T14:54:00;8.40;;;6.33;;
46308;SDS011;32037;50.820;6.494;2023-02-21T14:56:57;7.40;;;5.17;;
46308;SDS011;32037;50.820;6.494;2023-02-21T14:59:51;7.13;;;5.17;;
46308;SDS011;32037;50.820;6.494;2023-02-21T15:02:33;9.27;;;5.43;;
46308;SDS011;32037;50.820;6.494;2023-02-21T15:05:11;6.80;;;5.37;;
46308;SDS011;32037;50.820;6.494;2023-02-21T15:07:50;9.37;;;5.73;;
46308;SDS011;32037;50.820;6.494;2023-02-21T15:10:25;6.23;;;5.07;;
46308;SDS011;32037;50.820;6.494;2023-02-21T15:12:56;11.77;;;7.33;;
46308;SDS011;32037;50.820;6.494;2023-02-21T15:15:27;6.97;;;4.93;;
46308;SDS011;32037;50.820;6.494;2023-02-21T15:18:05;5.37;;;4.53;;
46308;SDS011;32037;50.820;6.494;2023-02-21T15:20:37;6.40;;;5.17;;
46308;SDS011;32037;50.820;6.494;2023-02-21T15:23:12;5.83;;;4.33;;
46308;SDS011;32037;50.820;6.494;2023-02-21T15:25:52;7.77;;;4.80;;
46308;SDS011;32037;50.820;6.494;2023-02-21T15:28:23;7.27;;;5.43;;
46308;SDS011;32037;50.820;6.494;2023-02-21T15:30:57;7.87;;;5.77;;
46308;SDS011;32037;50.820;6.494;2023-02-21T15:33:29;6.40;;;5.10;;
46308;SDS011;32037;50.820;6.494;2023-02-21T15:36:00;6.20;;;4.97;;
46308;SDS011;32037;50.820;6.494;2023-02-21T15:38:32;8.40;;;5.43;;
46308;SDS011;32037;50.820;6.494;2023-02-21T15:41:06;5.83;;;4.80;;
46308;SDS011;32037;50.820;6.494;2023-02-21T15:43:41;6.07;;;4.27;;
46308;SDS011;32037;50.820;6.494;2023-02-21T15:46:17;7.33;;;5.57;;
46308;SDS011;32037;50.820;6.494;2023-02-21T15:48:48;6.50;;;5.30;;
46308;SDS011;32037;50.820;6.494;2023-02-21T15:51:18;8.20;;;5.63;;
46308;SDS011;32037;50.820;6.494;2023-02-21T15:56:41;9.73;;;6.00;;
46308;SDS011;32037;50.820;6.494;2023-02-21T15:59:11;9.67;;;6.90;;
46308;SDS011;32037;50.820;6.494;2023-02-21T16:01:46;6.77;;;4.90;;
46308;SDS011;32037;50.820;6.494;2023-02-21T16:04:35;6.63;;;5.10;;